LFRM

Le Mans-Arnage Airport

Le Mans/Arnage, France
TAF LFRM 181100Z 1812/1912 16010KT CAVOK BECMG 1817/1819 3000 RA SCT015 BKN030 TEMPO 1819/1822 BKN012 BECMG 1822/1824 22010KT 9999 NSW SCT030 TEMPO 1900/1906 4000 SHRA BKN030TCU
Issued Valid From Valid To
Dec-18 @ 11:00 UTC
(12 hours ago)
Dec-18 @ 12:00 UTC
(11 hours ago)
Dec-19 @ 12:00 UTC
(in 13 hours)
Expired Click to View Dec-18 @ 12:00 to Dec-18 @ 17:00
TAF LFRM 181100Z 1812/1912 16010KT CAVOK
Wind Visibility Clouds Conditions
160° at 10 knots 10,000+ meters
  • No significant clouds
Expired Click to View Dec-18 @ 17:00 to Dec-18 @ 22:00
BECMG 1817/1819 3000 RA SCT015 BKN030
Wind Visibility Clouds Conditions
160° at 10 knots 2,993 meters
  • Scattered at 1,500' AGL
  • Broken at 3,000' AGL
  • Rain
Expired Click to View Dec-18 @ 19:00 to Dec-18 @ 22:00
TEMPO 1819/1822 BKN012
Clouds
  • Broken at 1,200' AGL
Becoming Dec-18 @ 22:00 to Dec-19 @ 12:00
BECMG 1822/1824 22010KT 9999 NSW SCT030
Wind Visibility Clouds Conditions
220° at 10 knots 10,000+ meters
  • Scattered at 3,000' AGL
Temporary Dec-19 @ 00:00 to Dec-19 @ 06:00
TEMPO 1900/1906 4000 SHRA BKN030TCU
Visibility Clouds Conditions
4,007 meters
  • Broken at 3,000' AGL
  • Rain
TAF LFRM 181100Z 1812/1912 16010KT CAVOK BECMG 1817/1819 3000 RA SCT015 BKN030 TEMPO 1819/1822 BKN012 BECMG 1822/1824 22010KT 9999 NSW SCT030 TEMPO 1900/1906 4000 SHRA BKN030TCU
Issued Dec-18 @ 11:00 UTC
(12 hours ago)
Valid From Dec-18 @ 12:00 UTC
(11 hours ago)
Valid To Dec-19 @ 12:00 UTC
(in 13 hours)
Dec-18 @ 12:00 - Dec-18 @ 17:00
Wind Visibility
160° at 10 knots 10,000+ meters
Clouds
  • No significant clouds
Conditions
Dec-18 @ 17:00 - Dec-18 @ 22:00
Wind Visibility
160° at 10 knots 2,993 meters
Clouds
  • Scattered at 1,500' AGL
  • Broken at 3,000' AGL
Conditions
  • Rain
Dec-18 @ 19:00 - Dec-18 @ 22:00
Clouds
  • Broken at 1,200' AGL
Becoming Dec-18 @ 22:00 - Dec-19 @ 12:00
Wind Visibility
220° at 10 knots 10,000+ meters
Clouds
  • Scattered at 3,000' AGL
Conditions
Temporary Dec-19 @ 00:00 - Dec-19 @ 06:00
Clouds
  • Broken at 3,000' AGL
Conditions
  • Rain